createdAt,value
2023-04-04T00:00:28.497Z,0.60
2023-04-04T00:02:54.854Z,1.38
2023-04-04T00:05:21.243Z,1.20
2023-04-04T00:07:50.117Z,1.20
2023-04-04T00:10:16.541Z,1.17
2023-04-04T00:12:46.015Z,1.00
2023-04-04T00:15:12.586Z,0.90
2023-04-04T00:17:39.028Z,0.82
2023-04-04T00:20:07.364Z,1.05
2023-04-04T00:22:33.689Z,0.88
2023-04-04T00:25:06.001Z,1.08
2023-04-04T00:27:34.901Z,0.93
2023-04-04T00:30:01.282Z,1.02
2023-04-04T00:32:30.081Z,1.05
2023-04-04T00:34:56.414Z,1.55
2023-04-04T00:37:22.730Z,1.08
2023-04-04T00:39:49.050Z,1.02
2023-04-04T00:42:15.574Z,1.10
2023-04-04T00:44:46.240Z,1.30
2023-04-04T00:47:13.905Z,1.27
2023-04-04T00:49:44.745Z,1.20
2023-04-04T00:52:11.029Z,1.10
2023-04-04T00:54:37.732Z,0.80
2023-04-04T00:57:08.783Z,0.80
2023-04-04T00:59:35.797Z,1.50
2023-04-04T01:02:05.740Z,1.30
2023-04-04T01:04:32.369Z,0.80
2023-04-04T01:06:59.337Z,1.25
2023-04-04T01:09:25.815Z,1.13
2023-04-04T01:11:53.135Z,1.00
2023-04-04T01:14:19.593Z,1.13
2023-04-04T01:16:46.301Z,1.20
2023-04-04T01:19:21.784Z,0.95
2023-04-04T01:21:51.093Z,0.98
2023-04-04T01:24:19.195Z,1.40
2023-04-04T01:26:45.489Z,1.30
2023-04-04T01:29:14.509Z,1.08
2023-04-04T01:31:48.674Z,1.23
2023-04-04T01:34:24.078Z,0.82
2023-04-04T01:37:19.385Z,1.10
2023-04-04T01:39:53.401Z,1.00
2023-04-04T01:42:20.275Z,1.15
2023-04-04T01:44:46.689Z,1.00
2023-04-04T01:47:13.357Z,1.33
2023-04-04T01:49:40.996Z,1.17
2023-04-04T01:52:08.747Z,1.00
2023-04-04T01:54:35.153Z,1.00
2023-04-04T01:57:04.209Z,0.93
2023-04-04T01:59:30.626Z,0.80
2023-04-04T02:01:57.081Z,0.68
2023-04-04T02:04:23.518Z,1.10
2023-04-04T02:06:49.872Z,1.17
2023-04-04T02:09:19.080Z,1.08
2023-04-04T02:11:45.366Z,1.27
2023-04-04T02:14:13.232Z,0.93
2023-04-04T02:16:39.549Z,1.02
2023-04-04T02:19:05.929Z,1.50
2023-04-04T02:21:37.677Z,1.75
2023-04-04T02:24:04.336Z,1.02
2023-04-04T02:26:30.669Z,1.42
2023-04-04T02:28:56.971Z,1.10
2023-04-04T02:31:23.316Z,1.80
2023-04-04T02:33:52.104Z,1.30
2023-04-04T02:36:19.645Z,1.60
2023-04-04T02:38:54.406Z,1.10
2023-04-04T02:41:20.702Z,1.05
2023-04-04T02:43:47.150Z,1.13
2023-04-04T02:46:22.034Z,1.40
2023-04-04T02:48:48.963Z,1.42
2023-04-04T02:51:17.446Z,1.25
2023-04-04T02:53:43.783Z,1.25
2023-04-04T02:56:10.242Z,1.42
2023-04-04T02:58:37.975Z,1.17
2023-04-04T03:01:04.327Z,1.20
2023-04-04T03:03:35.726Z,1.40
2023-04-04T03:06:09.541Z,0.95
2023-04-04T03:08:35.882Z,1.27
2023-04-04T03:11:08.160Z,1.10
2023-04-04T03:13:37.356Z,1.33
2023-04-04T03:16:05.425Z,1.02
2023-04-04T03:18:32.086Z,1.10
2023-04-04T03:20:58.455Z,0.90
2023-04-04T03:23:27.043Z,1.15
2023-04-04T03:25:53.429Z,1.65
2023-04-04T03:28:22.837Z,1.30
2023-04-04T03:30:49.215Z,1.10
2023-04-04T03:33:15.677Z,1.67
2023-04-04T03:35:42.626Z,1.20
2023-04-04T03:38:08.980Z,1.52
2023-04-04T03:40:35.569Z,1.83
2023-04-04T03:43:02.306Z,1.52
2023-04-04T03:45:39.104Z,1.30
2023-04-04T03:48:05.735Z,1.35
2023-04-04T03:50:40.019Z,1.40
2023-04-04T03:53:06.613Z,1.15
2023-04-04T03:55:42.288Z,1.23
2023-04-04T03:58:09.770Z,1.70
2023-04-04T04:00:39.634Z,1.38
2023-04-04T04:03:06.167Z,0.90
2023-04-04T04:05:32.848Z,1.20
2023-04-04T04:07:59.179Z,1.05
2023-04-04T04:10:27.805Z,1.27
2023-04-04T04:13:01.306Z,1.13
2023-04-04T04:15:31.718Z,1.35
2023-04-04T04:17:58.153Z,1.60
2023-04-04T04:20:26.837Z,1.10
2023-04-04T04:22:54.076Z,1.45
2023-04-04T04:25:23.913Z,1.38
2023-04-04T04:27:50.311Z,1.10
2023-04-04T04:30:16.821Z,1.17
2023-04-04T04:32:43.227Z,1.75
2023-04-04T04:35:14.863Z,1.30
2023-04-04T04:37:41.201Z,1.55
2023-04-04T04:40:21.447Z,1.38
2023-04-04T04:42:47.850Z,1.23
2023-04-04T04:45:14.260Z,1.55
2023-04-04T04:47:48.352Z,1.27
2023-04-04T04:50:15.824Z,2.28
2023-04-04T04:52:42.346Z,1.30
2023-04-04T04:55:09.139Z,1.20
2023-04-04T04:57:49.803Z,0.98
2023-04-04T05:00:16.811Z,1.35
2023-04-04T05:02:44.830Z,1.27
2023-04-04T05:05:11.309Z,1.70
2023-04-04T05:07:37.605Z,1.40
2023-04-04T05:10:04.255Z,1.88
2023-04-04T05:12:30.564Z,1.52
2023-04-04T05:14:56.914Z,1.55
2023-04-04T05:17:24.628Z,1.65
2023-04-04T05:19:51.063Z,2.03
2023-04-04T05:22:17.570Z,1.90
2023-04-04T05:24:51.384Z,2.17
2023-04-04T05:27:21.851Z,1.52
2023-04-04T05:29:58.577Z,1.58
2023-04-04T05:32:30.075Z,1.13
2023-04-04T05:34:56.507Z,1.55
2023-04-04T05:37:23.266Z,2.00
2023-04-04T05:39:49.609Z,1.42
2023-04-04T05:42:16.091Z,1.65
2023-04-04T05:44:42.584Z,2.30
2023-04-04T05:47:11.335Z,1.70
2023-04-04T05:49:39.831Z,1.70
2023-04-04T05:52:06.306Z,0.93
2023-04-04T05:54:32.841Z,1.60
2023-04-04T05:56:59.203Z,1.58
2023-04-04T05:59:27.983Z,1.92
2023-04-04T06:01:54.390Z,1.98
2023-04-04T06:04:20.687Z,1.55
2023-04-04T06:06:50.503Z,1.70
2023-04-04T06:09:17.651Z,2.08
2023-04-04T06:11:45.213Z,1.67
2023-04-04T06:14:15.232Z,1.65
2023-04-04T06:16:41.840Z,1.52
2023-04-04T06:19:08.185Z,1.80
2023-04-04T06:21:36.977Z,1.73
2023-04-04T06:24:03.514Z,1.90
2023-04-04T06:26:30.092Z,2.10
2023-04-04T06:28:58.785Z,2.05
2023-04-04T06:31:25.155Z,1.88
2023-04-04T06:33:56.252Z,2.22
2023-04-04T06:36:22.715Z,1.83
2023-04-04T06:39:06.837Z,2.15
2023-04-04T06:41:33.158Z,2.30
2023-04-04T06:43:59.856Z,2.40
2023-04-04T06:46:31.114Z,2.08
2023-04-04T06:48:57.460Z,2.05
2023-04-04T06:51:26.748Z,2.53
2023-04-04T06:53:53.191Z,3.53
2023-04-04T06:56:22.781Z,2.13
2023-04-04T06:58:49.334Z,2.50
2023-04-04T07:01:15.970Z,2.15
2023-04-04T07:03:42.482Z,1.98
2023-04-04T07:06:08.849Z,2.05
2023-04-04T07:08:36.811Z,2.47
2023-04-04T07:11:04.602Z,2.90
2023-04-04T07:13:33.895Z,2.60
2023-04-04T07:16:02.565Z,2.38
2023-04-04T07:18:32.908Z,1.95
2023-04-04T07:21:02.284Z,2.67
2023-04-04T07:23:30.850Z,2.25
2023-04-04T07:25:57.208Z,2.85
2023-04-04T07:28:23.596Z,2.30
2023-04-04T07:30:49.894Z,2.63
2023-04-04T07:33:16.209Z,3.15
2023-04-04T07:35:42.561Z,2.35
2023-04-04T07:38:08.903Z,2.67
2023-04-04T07:40:35.286Z,3.13
2023-04-04T07:43:01.607Z,2.55
2023-04-04T07:45:27.973Z,2.83
2023-04-04T07:47:56.854Z,3.17
2023-04-04T07:50:23.133Z,2.78
2023-04-04T07:52:52.165Z,2.38
2023-04-04T07:55:27.628Z,3.50
2023-04-04T07:57:56.326Z,2.70
2023-04-04T08:00:28.631Z,2.75
2023-04-04T08:02:56.291Z,2.72
2023-04-04T08:05:22.759Z,2.70
2023-04-04T08:07:49.205Z,2.47
2023-04-04T08:10:15.706Z,2.83
2023-04-04T08:12:42.073Z,2.13
2023-04-04T08:15:08.821Z,2.38
2023-04-04T08:17:39.039Z,2.00
2023-04-04T08:20:06.058Z,2.65
2023-04-04T08:22:32.380Z,2.10
2023-04-04T08:24:58.750Z,2.72
2023-04-04T08:27:25.054Z,2.42
2023-04-04T08:29:51.352Z,2.63
2023-04-04T08:32:17.680Z,2.78
2023-04-04T08:34:44.045Z,2.58
2023-04-04T08:37:10.326Z,1.98
2023-04-04T08:39:36.671Z,1.88
2023-04-04T08:42:11.396Z,2.33
2023-04-04T08:44:41.763Z,1.70
2023-04-04T08:47:14.346Z,2.05
2023-04-04T08:49:44.059Z,2.08
2023-04-04T08:52:12.599Z,1.60
2023-04-04T08:54:42.889Z,1.60
2023-04-04T08:57:10.417Z,1.85
2023-04-04T08:59:38.255Z,1.50
2023-04-04T09:02:17.271Z,1.40
2023-04-04T09:04:51.368Z,0.85
2023-04-04T09:07:26.916Z,1.80
2023-04-04T09:09:54.076Z,1.85
2023-04-04T09:12:24.709Z,1.13
2023-04-04T09:14:52.914Z,1.73
2023-04-04T09:17:22.901Z,1.70
2023-04-04T09:19:49.274Z,1.23
2023-04-04T09:22:16.069Z,1.10
2023-04-04T09:24:44.888Z,1.67
2023-04-04T09:27:12.421Z,1.55
2023-04-04T09:29:40.633Z,1.40
2023-04-04T09:32:25.300Z,1.23
2023-04-04T09:34:51.701Z,1.10
2023-04-04T09:37:24.090Z,1.50
2023-04-04T09:39:50.568Z,1.38
2023-04-04T09:42:17.027Z,1.27
2023-04-04T09:44:43.618Z,1.40
2023-04-04T09:47:32.162Z,1.67
2023-04-04T09:50:07.102Z,1.80
2023-04-04T09:52:33.664Z,1.58
2023-04-04T09:55:04.222Z,1.13
2023-04-04T09:57:32.203Z,1.25
2023-04-04T10:00:06.362Z,1.10
2023-04-04T10:02:33.178Z,1.10
2023-04-04T10:07:33.579Z,1.13
2023-04-04T10:10:08.084Z,1.30
2023-04-04T10:12:42.493Z,1.55
2023-04-04T10:15:11.153Z,2.10
2023-04-04T10:17:39.380Z,1.77
2023-04-04T10:20:07.421Z,1.52
2023-04-04T10:22:37.879Z,1.60
2023-04-04T10:25:05.836Z,1.85
2023-04-04T10:27:33.418Z,1.70
2023-04-04T10:30:00.387Z,1.90
2023-04-04T10:32:48.230Z,1.80
2023-04-04T10:35:14.688Z,1.33
2023-04-04T10:37:45.590Z,1.60
2023-04-04T10:40:21.545Z,2.22
2023-04-04T10:42:50.506Z,1.67
2023-04-04T10:45:21.725Z,1.35
2023-04-04T10:47:48.609Z,1.77
2023-04-04T10:50:14.949Z,1.10
2023-04-04T10:52:43.755Z,1.23
2023-04-04T10:55:12.824Z,1.63
2023-04-04T10:57:43.422Z,1.38
2023-04-04T11:00:16.182Z,1.85
2023-04-04T11:02:57.315Z,1.58
2023-04-04T11:05:32.218Z,1.73
2023-04-04T11:08:08.776Z,1.35
2023-04-04T11:10:37.672Z,1.52
2023-04-04T11:13:20.280Z,1.88
2023-04-04T11:15:50.687Z,1.90
2023-04-04T11:21:03.683Z,1.90
2023-04-04T11:23:50.387Z,1.98
2023-04-04T11:26:25.987Z,1.83
2023-04-04T11:28:52.423Z,1.55
2023-04-04T11:31:18.861Z,1.55
2023-04-04T11:33:57.403Z,1.67
2023-04-04T11:36:44.011Z,1.42
2023-04-04T11:39:15.735Z,1.17
2023-04-04T11:42:13.051Z,1.80
2023-04-04T11:44:48.645Z,1.30
2023-04-04T11:47:19.482Z,1.50
2023-04-04T11:49:50.369Z,1.80
2023-04-04T11:52:17.569Z,1.77
2023-04-04T11:54:46.422Z,1.73
2023-04-04T11:57:32.704Z,1.80
2023-04-04T12:00:01.266Z,1.80
2023-04-04T12:02:32.347Z,1.98
2023-04-04T12:04:59.155Z,1.85
2023-04-04T12:07:26.131Z,1.95
2023-04-04T12:09:52.982Z,2.10
2023-04-04T12:12:21.651Z,1.17
2023-04-04T12:14:48.208Z,1.88
2023-04-04T12:17:16.140Z,2.00
2023-04-04T12:19:45.173Z,1.85
2023-04-04T12:22:11.538Z,2.00
2023-04-04T12:24:38.130Z,1.77
2023-04-04T12:27:11.387Z,1.88
2023-04-04T12:29:38.060Z,1.83
2023-04-04T12:32:08.849Z,2.17
2023-04-04T12:34:43.086Z,1.80
2023-04-04T12:37:11.920Z,1.73
2023-04-04T12:39:46.215Z,1.55
2023-04-04T12:42:12.595Z,2.20
2023-04-04T12:44:42.997Z,1.63
2023-04-04T12:47:15.891Z,1.95
2023-04-04T12:49:45.556Z,2.15
2023-04-04T12:52:27.740Z,2.00
2023-04-04T12:57:36.027Z,2.13
2023-04-04T13:00:08.307Z,1.65
2023-04-04T13:02:36.213Z,2.13
2023-04-04T13:05:03.559Z,2.90
2023-04-04T13:07:32.491Z,2.45
2023-04-04T13:10:04.121Z,2.20
2023-04-04T13:13:01.573Z,2.25
2023-04-04T13:16:01.010Z,2.70
2023-04-04T13:18:33.967Z,1.65
2023-04-04T13:21:00.339Z,2.50
2023-04-04T13:23:29.131Z,2.03
2023-04-04T13:25:55.498Z,2.53
2023-04-04T13:28:21.858Z,2.60
2023-04-04T13:30:48.180Z,2.30
2023-04-04T13:33:16.856Z,2.33
2023-04-04T13:35:43.904Z,2.83
2023-04-04T13:38:11.281Z,2.08
2023-04-04T13:40:37.685Z,2.10
2023-04-04T13:43:14.436Z,1.90
2023-04-04T13:45:42.188Z,2.00
2023-04-04T13:48:09.470Z,1.90
2023-04-04T13:50:37.569Z,2.10
2023-04-04T13:53:04.502Z,2.35
2023-04-04T13:55:30.865Z,2.30
2023-04-04T13:57:59.991Z,2.50
2023-04-04T14:00:26.354Z,2.35
2023-04-04T14:02:55.665Z,2.80
2023-04-04T14:07:49.642Z,2.88
2023-04-04T14:10:16.152Z,2.50
2023-04-04T14:12:42.716Z,2.97
2023-04-04T14:15:12.264Z,2.40
2023-04-04T14:17:39.925Z,2.17
2023-04-04T14:20:07.386Z,2.22
2023-04-04T14:22:33.913Z,2.70
2023-04-04T14:25:03.004Z,2.72
2023-04-04T14:27:30.570Z,2.72
2023-04-04T14:29:58.089Z,2.30
2023-04-04T14:32:24.482Z,2.55
2023-04-04T14:34:51.002Z,2.30
2023-04-04T14:37:17.309Z,2.78
2023-04-04T14:39:52.155Z,2.63
2023-04-04T14:42:18.495Z,2.10
2023-04-04T14:44:44.909Z,2.53
2023-04-04T14:47:17.233Z,2.42
2023-04-04T14:49:43.574Z,2.53
2023-04-04T14:52:09.941Z,2.60
2023-04-04T14:54:36.304Z,2.45
2023-04-04T14:57:02.889Z,2.75
2023-04-04T14:59:29.899Z,2.35
2023-04-04T15:01:59.193Z,2.15
2023-04-04T15:04:25.574Z,2.20
2023-04-04T15:06:51.994Z,2.60
2023-04-04T15:09:18.284Z,2.05
2023-04-04T15:11:44.658Z,2.53
2023-04-04T15:14:13.346Z,2.00
2023-04-04T15:16:39.805Z,2.40
2023-04-04T15:19:06.161Z,2.38
2023-04-04T15:21:38.960Z,2.42
2023-04-04T15:24:05.510Z,2.50
2023-04-04T15:26:32.303Z,2.17
2023-04-04T15:28:58.730Z,2.40
2023-04-04T15:31:30.038Z,2.60
2023-04-04T15:33:59.018Z,2.40
2023-04-04T15:36:26.492Z,2.30
2023-04-04T15:38:53.097Z,3.13
2023-04-04T15:41:22.138Z,2.47
2023-04-04T15:43:48.610Z,2.25
2023-04-04T15:46:15.060Z,2.13
2023-04-04T15:48:41.404Z,2.33
2023-04-04T15:51:07.758Z,2.63
2023-04-04T15:53:36.488Z,2.40
2023-04-04T15:56:02.841Z,2.42
2023-04-04T15:58:29.192Z,2.38
2023-04-04T16:00:55.717Z,2.20
2023-04-04T16:03:22.411Z,2.00
2023-04-04T16:05:48.858Z,1.85
2023-04-04T16:08:15.296Z,2.40
2023-04-04T16:10:42.165Z,1.67
2023-04-04T16:13:08.769Z,2.63
2023-04-04T16:15:37.820Z,2.38
2023-04-04T16:18:04.337Z,2.45
2023-04-04T16:20:30.909Z,2.92
2023-04-04T16:22:58.406Z,2.30
2023-04-04T16:25:24.822Z,2.10
2023-04-04T16:27:56.535Z,2.08
2023-04-04T16:30:25.949Z,2.08
2023-04-04T16:32:55.363Z,2.25
2023-04-04T16:35:21.756Z,1.98
2023-04-04T16:37:48.101Z,2.47
2023-04-04T16:40:22.725Z,2.53
2023-04-04T16:42:51.427Z,2.38
2023-04-04T16:45:18.384Z,2.10
2023-04-04T16:47:44.731Z,2.50
2023-04-04T16:50:16.197Z,2.80
2023-04-04T16:52:44.726Z,3.10
2023-04-04T16:55:11.163Z,2.97
2023-04-04T16:57:37.538Z,2.58
2023-04-04T17:00:04.272Z,2.05
2023-04-04T17:02:30.762Z,3.05
2023-04-04T17:05:05.006Z,2.65
2023-04-04T17:07:35.654Z,2.40
2023-04-04T17:10:13.827Z,2.47
2023-04-04T17:12:45.097Z,2.67
2023-04-04T17:15:13.316Z,2.20
2023-04-04T17:17:41.784Z,3.08
2023-04-04T17:20:09.766Z,2.47
2023-04-04T17:22:40.200Z,2.78
2023-04-04T17:25:06.897Z,2.42
2023-04-04T17:27:33.333Z,3.28
2023-04-04T17:30:03.827Z,2.80
2023-04-04T17:32:32.117Z,3.25
2023-04-04T17:35:02.429Z,2.20
2023-04-04T17:37:31.519Z,2.80
2023-04-04T17:39:59.821Z,2.85
2023-04-04T17:42:26.404Z,3.08
2023-04-04T17:44:52.832Z,2.72
2023-04-04T17:47:24.706Z,2.90
2023-04-04T17:49:51.361Z,2.60
2023-04-04T17:52:19.144Z,3.20
2023-04-04T17:54:48.559Z,3.13
2023-04-04T17:57:16.220Z,1.85
2023-04-04T17:59:43.639Z,2.85
2023-04-04T18:02:10.685Z,2.58
2023-04-04T18:04:40.191Z,3.33
2023-04-04T18:07:06.606Z,3.38
2023-04-04T18:09:33.013Z,3.20
2023-04-04T18:12:02.085Z,3.25
2023-04-04T18:17:11.655Z,2.92
2023-04-04T18:19:41.236Z,3.22
2023-04-04T18:22:08.190Z,3.03
2023-04-04T18:24:34.618Z,3.10
2023-04-04T18:27:01.022Z,3.20
2023-04-04T18:29:27.410Z,3.67
2023-04-04T18:31:55.177Z,3.50
2023-04-04T18:34:21.559Z,2.95
2023-04-04T18:36:49.364Z,3.25
2023-04-04T18:39:15.938Z,2.88
2023-04-04T18:41:43.203Z,3.30
2023-04-04T18:44:09.572Z,2.78
2023-04-04T18:46:38.828Z,2.88
2023-04-04T18:49:05.392Z,2.83
2023-04-04T18:51:31.697Z,2.58
2023-04-04T18:53:57.985Z,3.10
2023-04-04T18:56:24.328Z,3.42
2023-04-04T18:58:51.893Z,3.42
2023-04-04T19:01:18.687Z,2.95
2023-04-04T19:03:45.619Z,3.28
2023-04-04T19:06:12.966Z,3.20
2023-04-04T19:08:42.721Z,3.25
2023-04-04T19:11:10.261Z,3.15
2023-04-04T19:13:37.329Z,3.30
2023-04-04T19:16:08.645Z,2.50
2023-04-04T19:18:38.091Z,3.15
2023-04-04T19:21:05.673Z,3.33
2023-04-04T19:23:32.359Z,3.00
2023-04-04T19:25:58.666Z,3.17
2023-04-04T19:28:26.215Z,2.85
2023-04-04T19:30:52.554Z,2.78
2023-04-04T19:33:21.673Z,2.65
2023-04-04T19:35:59.807Z,2.50
2023-04-04T19:38:29.391Z,3.35
2023-04-04T19:41:08.617Z,3.25
2023-04-04T19:43:34.992Z,2.92
2023-04-04T19:46:09.474Z,3.70
2023-04-04T19:48:50.472Z,3.33
2023-04-04T19:51:16.763Z,3.47
2023-04-04T19:53:44.912Z,3.22
2023-04-04T19:56:12.967Z,2.92
2023-04-04T19:58:39.755Z,3.15
2023-04-04T20:01:08.877Z,3.60
2023-04-04T20:03:37.932Z,3.47
2023-04-04T20:06:09.831Z,3.30
2023-04-04T20:08:46.006Z,3.38
2023-04-04T20:11:16.213Z,3.05
2023-04-04T20:13:45.656Z,3.80
2023-04-04T20:16:18.712Z,3.75
2023-04-04T20:18:46.255Z,2.85
2023-04-04T20:21:13.953Z,3.80
2023-04-04T20:23:48.100Z,3.55
2023-04-04T20:26:40.181Z,3.97
2023-04-04T20:29:07.589Z,3.50
2023-04-04T20:31:38.930Z,3.55
2023-04-04T20:34:06.372Z,3.80
2023-04-04T20:36:44.915Z,3.03
2023-04-04T20:39:36.998Z,3.10
2023-04-04T20:42:31.820Z,3.13
2023-04-04T20:45:10.383Z,4.07
2023-04-04T20:47:54.146Z,3.10
2023-04-04T20:50:43.719Z,4.18
2023-04-04T20:53:16.690Z,3.67
2023-04-04T20:55:43.423Z,3.00
2023-04-04T20:58:25.709Z,3.35
2023-04-04T21:00:52.383Z,3.40
2023-04-04T21:03:25.898Z,3.55
2023-04-04T21:05:56.626Z,3.28
2023-04-04T21:08:22.939Z,3.22
2023-04-04T21:10:51.713Z,4.10
2023-04-04T21:13:27.345Z,3.40
2023-04-04T21:16:13.587Z,3.13
2023-04-04T21:18:43.282Z,4.18
2023-04-04T21:21:15.792Z,2.97
2023-04-04T21:23:59.577Z,3.58
2023-04-04T21:26:36.827Z,3.92
2023-04-04T21:29:23.156Z,3.15
2023-04-04T21:31:52.324Z,3.33
2023-04-04T21:34:21.692Z,3.17
2023-04-04T21:36:50.120Z,3.40
2023-04-04T21:39:23.494Z,4.32
2023-04-04T21:42:01.385Z,3.60
2023-04-04T21:44:28.561Z,3.13
2023-04-04T21:46:58.063Z,3.75
2023-04-04T21:49:29.840Z,3.58
2023-04-04T21:51:57.369Z,3.22
2023-04-04T21:54:23.734Z,3.22
2023-04-04T21:56:50.016Z,2.75
2023-04-04T21:59:16.517Z,3.22
2023-04-04T22:01:45.482Z,3.40
2023-04-04T22:04:11.812Z,2.88
2023-04-04T22:06:39.578Z,3.47
2023-04-04T22:09:05.895Z,3.03
2023-04-04T22:11:32.516Z,2.80
2023-04-04T22:13:58.808Z,2.92
2023-04-04T22:16:28.240Z,2.88
2023-04-04T22:18:54.777Z,2.78
2023-04-04T22:21:21.147Z,2.80
2023-04-04T22:23:52.619Z,2.38
2023-04-04T22:26:21.275Z,2.35
2023-04-04T22:28:47.561Z,2.00
2023-04-04T22:31:14.341Z,2.47
2023-04-04T22:33:45.411Z,2.38
2023-04-04T22:36:11.696Z,2.72
2023-04-04T22:38:37.994Z,2.78
2023-04-04T22:41:07.342Z,2.95
2023-04-04T22:43:33.703Z,2.17
2023-04-04T22:46:00.065Z,2.63
2023-04-04T22:48:26.484Z,2.90
2023-04-04T22:50:52.794Z,2.90
2023-04-04T22:53:20.322Z,2.72
2023-04-04T22:55:46.728Z,3.03
2023-04-04T22:58:13.015Z,2.92
2023-04-04T23:00:44.631Z,2.92
2023-04-04T23:03:11.109Z,2.85
2023-04-04T23:05:37.482Z,3.30
2023-04-04T23:08:07.117Z,2.50
2023-04-04T23:10:33.637Z,2.70
2023-04-04T23:12:59.929Z,2.60
2023-04-04T23:15:26.253Z,2.58
2023-04-04T23:17:55.980Z,2.78
2023-04-04T23:20:22.337Z,2.50
2023-04-04T23:22:55.742Z,2.80
2023-04-04T23:25:27.356Z,3.20
2023-04-04T23:27:55.266Z,2.58
2023-04-04T23:30:24.387Z,2.45
2023-04-04T23:32:52.967Z,2.35
2023-04-04T23:35:19.274Z,2.97
2023-04-04T23:37:45.613Z,2.95
2023-04-04T23:40:14.874Z,2.80
2023-04-04T23:42:41.208Z,2.78
2023-04-04T23:45:08.222Z,3.05
2023-04-04T23:47:34.745Z,3.58
2023-04-04T23:50:03.991Z,2.50
2023-04-04T23:52:30.344Z,2.30
2023-04-04T23:54:57.730Z,2.00
2023-04-04T23:57:24.045Z,2.83
2023-04-04T23:59:50.456Z,2.45
